sensor_id;sensor_type;location;lat;lon;timestamp;P1;durP1;ratioP1;P2;durP2;ratioP2
75356;SDS011;63946;51.986;5.930;2023-05-07T06:38:59;17.35;;;14.32;;
75356;SDS011;63946;51.986;5.930;2023-05-07T06:41:28;15.25;;;13.65;;
75356;SDS011;63946;51.986;5.930;2023-05-07T06:44:04;14.57;;;12.48;;
75356;SDS011;63946;51.986;5.930;2023-05-07T06:46:41;17.92;;;15.25;;
75356;SDS011;63946;51.986;5.930;2023-05-07T06:49:14;15.88;;;13.07;;
75356;SDS011;63946;51.986;5.930;2023-05-07T06:51:44;17.35;;;15.55;;
75356;SDS011;63946;51.986;5.930;2023-05-07T06:54:15;17.27;;;15.48;;
75356;SDS011;63946;51.986;5.930;2023-05-07T06:56:45;16.58;;;13.05;;
75356;SDS011;63946;51.986;5.930;2023-05-07T06:59:15;17.60;;;14.48;;
75356;SDS011;63946;51.986;5.930;2023-05-07T07:01:46;17.70;;;15.35;;
75356;SDS011;63946;51.986;5.930;2023-05-07T07:04:15;15.50;;;13.65;;
75356;SDS011;63946;51.986;5.930;2023-05-07T07:06:53;15.75;;;13.55;;
75356;SDS011;63946;51.986;5.930;2023-05-07T07:09:23;17.08;;;14.55;;
75356;SDS011;63946;51.986;5.930;2023-05-07T07:11:54;15.02;;;12.73;;
75356;SDS011;63946;51.986;5.930;2023-05-07T07:14:23;19.35;;;15.32;;
75356;SDS011;63946;51.986;5.930;2023-05-07T07:16:54;19.65;;;15.25;;
75356;SDS011;63946;51.986;5.930;2023-05-07T07:19:24;17.63;;;13.70;;
75356;SDS011;63946;51.986;5.930;2023-05-07T07:21:54;15.98;;;14.27;;
75356;SDS011;63946;51.986;5.930;2023-05-07T07:24:23;17.05;;;14.18;;
75356;SDS011;63946;51.986;5.930;2023-05-07T07:26:56;20.17;;;15.88;;
75356;SDS011;63946;51.986;5.930;2023-05-07T07:29:26;16.38;;;14.27;;
75356;SDS011;63946;51.986;5.930;2023-05-07T07:31:56;13.90;;;12.40;;
75356;SDS011;63946;51.986;5.930;2023-05-07T07:34:25;18.23;;;14.80;;
75356;SDS011;63946;51.986;5.930;2023-05-07T07:36:53;19.20;;;15.80;;
75356;SDS011;63946;51.986;5.930;2023-05-07T07:39:23;18.40;;;16.27;;
75356;SDS011;63946;51.986;5.930;2023-05-07T07:41:55;18.88;;;15.80;;
75356;SDS011;63946;51.986;5.930;2023-05-07T07:44:24;18.77;;;16.20;;
75356;SDS011;63946;51.986;5.930;2023-05-07T07:46:57;19.15;;;16.38;;
75356;SDS011;63946;51.986;5.930;2023-05-07T07:49:27;17.85;;;14.32;;
75356;SDS011;63946;51.986;5.930;2023-05-07T07:51:58;17.48;;;14.35;;
75356;SDS011;63946;51.986;5.930;2023-05-07T07:54:29;18.63;;;15.93;;
75356;SDS011;63946;51.986;5.930;2023-05-07T07:56:58;20.65;;;15.07;;
75356;SDS011;63946;51.986;5.930;2023-05-07T07:59:29;17.05;;;13.90;;
75356;SDS011;63946;51.986;5.930;2023-05-07T08:01:59;18.17;;;13.88;;
75356;SDS011;63946;51.986;5.930;2023-05-07T08:04:35;16.08;;;12.77;;
75356;SDS011;63946;51.986;5.930;2023-05-07T08:07:06;18.23;;;15.43;;
75356;SDS011;63946;51.986;5.930;2023-05-07T08:09:38;19.67;;;14.80;;
75356;SDS011;63946;51.986;5.930;2023-05-07T08:12:09;21.23;;;16.95;;
75356;SDS011;63946;51.986;5.930;2023-05-07T08:14:38;18.65;;;15.77;;
75356;SDS011;63946;51.986;5.930;2023-05-07T08:17:08;19.48;;;14.15;;
75356;SDS011;63946;51.986;5.930;2023-05-07T08:19:38;18.98;;;14.80;;
75356;SDS011;63946;51.986;5.930;2023-05-07T08:22:10;16.02;;;13.35;;
75356;SDS011;63946;51.986;5.930;2023-05-07T08:24:40;16.45;;;12.68;;
75356;SDS011;63946;51.986;5.930;2023-05-07T08:27:09;18.88;;;14.40;;
75356;SDS011;63946;51.986;5.930;2023-05-07T08:29:40;15.75;;;12.90;;
75356;SDS011;63946;51.986;5.930;2023-05-07T08:32:13;22.05;;;16.65;;
75356;SDS011;63946;51.986;5.930;2023-05-07T08:34:42;17.30;;;13.63;;
75356;SDS011;63946;51.986;5.930;2023-05-07T08:37:11;16.88;;;13.77;;
75356;SDS011;63946;51.986;5.930;2023-05-07T08:39:49;20.95;;;15.45;;
75356;SDS011;63946;51.986;5.930;2023-05-07T08:42:21;17.60;;;14.57;;
75356;SDS011;63946;51.986;5.930;2023-05-07T08:44:52;20.08;;;16.08;;
75356;SDS011;63946;51.986;5.930;2023-05-07T08:47:26;18.63;;;14.50;;
75356;SDS011;63946;51.986;5.930;2023-05-07T08:50:02;20.42;;;15.15;;
75356;SDS011;63946;51.986;5.930;2023-05-07T08:52:32;16.17;;;13.52;;
75356;SDS011;63946;51.986;5.930;2023-05-07T08:55:02;15.45;;;11.55;;
75356;SDS011;63946;51.986;5.930;2023-05-07T08:57:32;17.92;;;12.88;;
75356;SDS011;63946;51.986;5.930;2023-05-07T09:00:02;19.52;;;15.85;;
75356;SDS011;63946;51.986;5.930;2023-05-07T09:02:36;17.23;;;14.57;;
75356;SDS011;63946;51.986;5.930;2023-05-07T09:05:07;17.45;;;13.45;;
75356;SDS011;63946;51.986;5.930;2023-05-07T09:10:07;15.10;;;12.63;;
75356;SDS011;63946;51.986;5.930;2023-05-07T09:12:39;16.48;;;12.75;;
75356;SDS011;63946;51.986;5.930;2023-05-07T09:15:10;16.17;;;12.80;;
75356;SDS011;63946;51.986;5.930;2023-05-07T09:17:42;15.18;;;12.82;;
75356;SDS011;63946;51.986;5.930;2023-05-07T09:20:12;16.15;;;13.65;;
75356;SDS011;63946;51.986;5.930;2023-05-07T09:22:42;17.02;;;13.63;;
75356;SDS011;63946;51.986;5.930;2023-05-07T09:25:13;19.13;;;14.70;;
75356;SDS011;63946;51.986;5.930;2023-05-07T09:27:43;16.00;;;12.43;;
75356;SDS011;63946;51.986;5.930;2023-05-07T09:30:14;19.42;;;15.00;;
75356;SDS011;63946;51.986;5.930;2023-05-07T09:32:46;14.98;;;13.02;;
75356;SDS011;63946;51.986;5.930;2023-05-07T09:35:19;18.65;;;13.88;;
75356;SDS011;63946;51.986;5.930;2023-05-07T09:37:55;16.10;;;12.50;;
75356;SDS011;63946;51.986;5.930;2023-05-07T09:40:27;13.75;;;11.50;;
75356;SDS011;63946;51.986;5.930;2023-05-07T09:43:09;16.92;;;14.93;;
75356;SDS011;63946;51.986;5.930;2023-05-07T09:45:44;15.88;;;14.20;;
75356;SDS011;63946;51.986;5.930;2023-05-07T09:48:17;18.50;;;14.23;;
75356;SDS011;63946;51.986;5.930;2023-05-07T09:50:49;20.95;;;11.85;;
75356;SDS011;63946;51.986;5.930;2023-05-07T09:53:23;19.27;;;14.52;;
75356;SDS011;63946;51.986;5.930;2023-05-07T09:55:54;16.83;;;12.70;;
75356;SDS011;63946;51.986;5.930;2023-05-07T09:58:25;18.23;;;14.40;;
75356;SDS011;63946;51.986;5.930;2023-05-07T10:00:55;17.80;;;12.75;;
75356;SDS011;63946;51.986;5.930;2023-05-07T10:06:00;17.73;;;12.40;;
75356;SDS011;63946;51.986;5.930;2023-05-07T10:08:32;14.70;;;12.07;;
75356;SDS011;63946;51.986;5.930;2023-05-07T10:11:03;14.95;;;11.85;;
75356;SDS011;63946;51.986;5.930;2023-05-07T10:13:35;15.60;;;13.63;;
75356;SDS011;63946;51.986;5.930;2023-05-07T10:16:09;16.42;;;12.40;;
75356;SDS011;63946;51.986;5.930;2023-05-07T10:18:45;17.58;;;13.43;;
75356;SDS011;63946;51.986;5.930;2023-05-07T10:21:21;14.55;;;12.80;;
75356;SDS011;63946;51.986;5.930;2023-05-07T10:24:07;12.80;;;10.38;;
75356;SDS011;63946;51.986;5.930;2023-05-07T10:27:07;13.63;;;11.95;;
75356;SDS011;63946;51.986;5.930;2023-05-07T10:35:27;16.25;;;13.35;;
75356;SDS011;63946;51.986;5.930;2023-05-07T10:38:03;14.40;;;11.30;;
75356;SDS011;63946;51.986;5.930;2023-05-07T10:40:36;13.88;;;11.00;;
75356;SDS011;63946;51.986;5.930;2023-05-07T10:43:06;16.70;;;11.75;;
75356;SDS011;63946;51.986;5.930;2023-05-07T10:45:43;15.18;;;12.30;;
75356;SDS011;63946;51.986;5.930;2023-05-07T10:49:15;10.23;;;8.85;;
75356;SDS011;63946;51.986;5.930;2023-05-07T10:52:14;12.65;;;11.15;;
75356;SDS011;63946;51.986;5.930;2023-05-07T10:55:42;13.27;;;11.02;;
75356;SDS011;63946;51.986;5.930;2023-05-07T10:58:22;15.32;;;12.40;;
75356;SDS011;63946;51.986;5.930;2023-05-07T11:01:03;13.85;;;11.80;;
75356;SDS011;63946;51.986;5.930;2023-05-07T11:03:37;12.18;;;10.43;;
75356;SDS011;63946;51.986;5.930;2023-05-07T11:10:01;12.18;;;10.05;;
75356;SDS011;63946;51.986;5.930;2023-05-07T11:12:53;15.13;;;11.88;;
75356;SDS011;63946;51.986;5.930;2023-05-07T11:15:36;11.32;;;9.15;;
75356;SDS011;63946;51.986;5.930;2023-05-07T11:18:21;12.48;;;11.13;;
75356;SDS011;63946;51.986;5.930;2023-05-07T11:20:53;17.20;;;12.27;;
75356;SDS011;63946;51.986;5.930;2023-05-07T11:26:42;11.02;;;9.82;;
75356;SDS011;63946;51.986;5.930;2023-05-07T11:29:13;14.20;;;11.80;;
75356;SDS011;63946;51.986;5.930;2023-05-07T11:31:48;11.45;;;10.20;;
75356;SDS011;63946;51.986;5.930;2023-05-07T11:34:21;11.30;;;10.15;;
75356;SDS011;63946;51.986;5.930;2023-05-07T11:36:55;13.82;;;11.52;;
75356;SDS011;63946;51.986;5.930;2023-05-07T11:39:37;12.60;;;11.25;;
75356;SDS011;63946;51.986;5.930;2023-05-07T11:42:21;13.60;;;11.13;;
75356;SDS011;63946;51.986;5.930;2023-05-07T11:44:57;11.52;;;10.18;;
75356;SDS011;63946;51.986;5.930;2023-05-07T11:47:26;12.23;;;10.93;;
75356;SDS011;63946;51.986;5.930;2023-05-07T11:50:02;12.63;;;11.35;;
75356;SDS011;63946;51.986;5.930;2023-05-07T11:52:33;13.75;;;11.40;;
75356;SDS011;63946;51.986;5.930;2023-05-07T11:55:06;14.02;;;11.43;;
75356;SDS011;63946;51.986;5.930;2023-05-07T11:57:35;11.18;;;9.50;;
75356;SDS011;63946;51.986;5.930;2023-05-07T12:00:06;11.38;;;9.48;;
75356;SDS011;63946;51.986;5.930;2023-05-07T12:02:39;11.55;;;10.35;;
75356;SDS011;63946;51.986;5.930;2023-05-07T12:05:08;13.10;;;10.57;;
75356;SDS011;63946;51.986;5.930;2023-05-07T12:07:40;10.48;;;8.98;;
75356;SDS011;63946;51.986;5.930;2023-05-07T12:10:09;12.52;;;11.02;;
75356;SDS011;63946;51.986;5.930;2023-05-07T12:12:40;13.18;;;11.23;;
75356;SDS011;63946;51.986;5.930;2023-05-07T12:15:15;12.88;;;11.45;;
75356;SDS011;63946;51.986;5.930;2023-05-07T12:17:45;12.70;;;10.75;;
75356;SDS011;63946;51.986;5.930;2023-05-07T12:20:14;13.07;;;10.30;;
75356;SDS011;63946;51.986;5.930;2023-05-07T12:22:43;14.10;;;9.13;;
75356;SDS011;63946;51.986;5.930;2023-05-07T12:25:12;11.02;;;9.32;;
75356;SDS011;63946;51.986;5.930;2023-05-07T12:27:51;13.13;;;9.85;;
75356;SDS011;63946;51.986;5.930;2023-05-07T12:30:20;11.98;;;9.63;;
75356;SDS011;63946;51.986;5.930;2023-05-07T12:32:52;11.73;;;8.43;;
75356;SDS011;63946;51.986;5.930;2023-05-07T12:35:28;10.48;;;9.15;;
75356;SDS011;63946;51.986;5.930;2023-05-07T12:38:00;8.68;;;7.15;;
75356;SDS011;63946;51.986;5.930;2023-05-07T12:40:36;14.20;;;9.55;;
75356;SDS011;63946;51.986;5.930;2023-05-07T12:43:20;10.60;;;8.52;;
75356;SDS011;63946;51.986;5.930;2023-05-07T12:45:56;8.50;;;6.82;;
75356;SDS011;63946;51.986;5.930;2023-05-07T12:48:31;9.93;;;8.20;;
75356;SDS011;63946;51.986;5.930;2023-05-07T12:51:01;11.23;;;9.52;;
75356;SDS011;63946;51.986;5.930;2023-05-07T12:53:30;10.77;;;8.48;;
75356;SDS011;63946;51.986;5.930;2023-05-07T12:56:00;11.35;;;9.32;;
75356;SDS011;63946;51.986;5.930;2023-05-07T12:58:30;10.10;;;8.68;;
75356;SDS011;63946;51.986;5.930;2023-05-07T13:01:04;9.90;;;8.20;;
75356;SDS011;63946;51.986;5.930;2023-05-07T13:03:35;13.98;;;9.55;;
75356;SDS011;63946;51.986;5.930;2023-05-07T13:06:08;10.60;;;7.70;;
75356;SDS011;63946;51.986;5.930;2023-05-07T13:08:39;10.63;;;7.30;;
75356;SDS011;63946;51.986;5.930;2023-05-07T13:11:10;7.88;;;6.68;;
75356;SDS011;63946;51.986;5.930;2023-05-07T13:13:40;12.48;;;7.38;;
75356;SDS011;63946;51.986;5.930;2023-05-07T13:16:10;10.52;;;8.02;;
75356;SDS011;63946;51.986;5.930;2023-05-07T13:18:39;9.80;;;7.85;;
75356;SDS011;63946;51.986;5.930;2023-05-07T13:21:10;9.68;;;7.53;;
75356;SDS011;63946;51.986;5.930;2023-05-07T13:23:45;8.15;;;6.55;;
75356;SDS011;63946;51.986;5.930;2023-05-07T13:26:17;8.63;;;7.00;;
75356;SDS011;63946;51.986;5.930;2023-05-07T13:28:46;8.93;;;7.35;;
75356;SDS011;63946;51.986;5.930;2023-05-07T13:31:14;7.55;;;6.75;;
75356;SDS011;63946;51.986;5.930;2023-05-07T13:33:43;10.82;;;8.85;;
75356;SDS011;63946;51.986;5.930;2023-05-07T13:36:12;10.70;;;9.05;;
75356;SDS011;63946;51.986;5.930;2023-05-07T13:38:41;10.38;;;8.82;;
75356;SDS011;63946;51.986;5.930;2023-05-07T13:41:11;9.68;;;8.55;;
75356;SDS011;63946;51.986;5.930;2023-05-07T13:46:08;8.27;;;7.28;;
75356;SDS011;63946;51.986;5.930;2023-05-07T13:48:37;11.68;;;9.38;;
75356;SDS011;63946;51.986;5.930;2023-05-07T13:51:09;9.15;;;7.18;;
75356;SDS011;63946;51.986;5.930;2023-05-07T13:53:38;9.13;;;7.80;;
75356;SDS011;63946;51.986;5.930;2023-05-07T13:56:10;7.50;;;6.38;;
75356;SDS011;63946;51.986;5.930;2023-05-07T13:58:42;7.72;;;6.85;;
75356;SDS011;63946;51.986;5.930;2023-05-07T14:01:11;10.02;;;7.57;;
75356;SDS011;63946;51.986;5.930;2023-05-07T14:03:43;10.23;;;7.32;;
75356;SDS011;63946;51.986;5.930;2023-05-07T14:06:11;7.15;;;6.38;;
75356;SDS011;63946;51.986;5.930;2023-05-07T14:11:13;7.68;;;6.50;;
75356;SDS011;63946;51.986;5.930;2023-05-07T14:13:42;9.65;;;6.45;;
75356;SDS011;63946;51.986;5.930;2023-05-07T14:16:10;8.32;;;6.93;;
75356;SDS011;63946;51.986;5.930;2023-05-07T14:18:39;11.38;;;7.82;;
75356;SDS011;63946;51.986;5.930;2023-05-07T14:21:08;10.52;;;9.27;;
75356;SDS011;63946;51.986;5.930;2023-05-07T14:23:37;10.23;;;9.07;;
75356;SDS011;63946;51.986;5.930;2023-05-07T14:26:06;8.55;;;7.65;;
75356;SDS011;63946;51.986;5.930;2023-05-07T14:28:35;9.38;;;8.20;;
75356;SDS011;63946;51.986;5.930;2023-05-07T14:31:05;12.35;;;9.93;;
75356;SDS011;63946;51.986;5.930;2023-05-07T14:33:35;11.73;;;9.63;;
75356;SDS011;63946;51.986;5.930;2023-05-07T14:36:04;12.52;;;10.10;;
75356;SDS011;63946;51.986;5.930;2023-05-07T14:38:33;12.15;;;9.70;;
75356;SDS011;63946;51.986;5.930;2023-05-07T14:41:02;11.57;;;8.85;;
75356;SDS011;63946;51.986;5.930;2023-05-07T14:43:30;8.77;;;7.93;;
75356;SDS011;63946;51.986;5.930;2023-05-07T14:45:59;10.18;;;7.57;;
75356;SDS011;63946;51.986;5.930;2023-05-07T14:48:28;10.98;;;7.10;;
75356;SDS011;63946;51.986;5.930;2023-05-07T14:50:57;7.03;;;5.00;;
75356;SDS011;63946;51.986;5.930;2023-05-07T14:53:25;5.43;;;3.83;;
75356;SDS011;63946;51.986;5.930;2023-05-07T14:55:54;4.30;;;3.20;;
75356;SDS011;63946;51.986;5.930;2023-05-07T14:58:23;3.55;;;2.70;;
75356;SDS011;63946;51.986;5.930;2023-05-07T15:00:58;2.72;;;2.42;;
75356;SDS011;63946;51.986;5.930;2023-05-07T15:03:27;4.35;;;2.83;;
75356;SDS011;63946;51.986;5.930;2023-05-07T15:05:56;4.13;;;3.20;;
75356;SDS011;63946;51.986;5.930;2023-05-07T15:08:28;5.30;;;3.28;;
75356;SDS011;63946;51.986;5.930;2023-05-07T15:10:57;5.10;;;3.15;;
75356;SDS011;63946;51.986;5.930;2023-05-07T15:13:26;4.55;;;3.55;;
75356;SDS011;63946;51.986;5.930;2023-05-07T15:15:54;4.75;;;3.42;;
75356;SDS011;63946;51.986;5.930;2023-05-07T15:18:23;5.80;;;3.05;;
75356;SDS011;63946;51.986;5.930;2023-05-07T15:20:52;3.65;;;3.00;;
75356;SDS011;63946;51.986;5.930;2023-05-07T15:23:21;3.22;;;2.65;;
75356;SDS011;63946;51.986;5.930;2023-05-07T15:25:50;4.82;;;3.63;;
75356;SDS011;63946;51.986;5.930;2023-05-07T15:28:20;4.50;;;3.42;;
75356;SDS011;63946;51.986;5.930;2023-05-07T15:30:50;4.30;;;3.75;;
75356;SDS011;63946;51.986;5.930;2023-05-07T15:33:23;5.10;;;3.70;;
75356;SDS011;63946;51.986;5.930;2023-05-07T15:35:55;5.70;;;3.38;;
75356;SDS011;63946;51.986;5.930;2023-05-07T15:38:28;4.47;;;2.78;;
75356;SDS011;63946;51.986;5.930;2023-05-07T15:40:58;3.67;;;2.90;;
75356;SDS011;63946;51.986;5.930;2023-05-07T15:43:26;3.40;;;2.38;;
75356;SDS011;63946;51.986;5.930;2023-05-07T15:45:55;3.35;;;2.00;;
75356;SDS011;63946;51.986;5.930;2023-05-07T15:48:27;2.75;;;2.03;;
75356;SDS011;63946;51.986;5.930;2023-05-07T15:50:56;2.80;;;1.98;;
75356;SDS011;63946;51.986;5.930;2023-05-07T15:53:25;3.35;;;2.05;;
75356;SDS011;63946;51.986;5.930;2023-05-07T15:55:54;2.88;;;2.10;;
75356;SDS011;63946;51.986;5.930;2023-05-07T15:58:26;3.35;;;2.22;;
75356;SDS011;63946;51.986;5.930;2023-05-07T16:00:54;3.15;;;2.22;;
75356;SDS011;63946;51.986;5.930;2023-05-07T16:03:23;3.80;;;2.63;;
75356;SDS011;63946;51.986;5.930;2023-05-07T16:05:54;3.28;;;1.98;;
75356;SDS011;63946;51.986;5.930;2023-05-07T16:08:25;2.20;;;1.67;;
75356;SDS011;63946;51.986;5.930;2023-05-07T16:10:54;1.80;;;1.55;;
75356;SDS011;63946;51.986;5.930;2023-05-07T16:13:25;3.70;;;2.30;;
75356;SDS011;63946;51.986;5.930;2023-05-07T16:15:57;4.35;;;2.83;;
75356;SDS011;63946;51.986;5.930;2023-05-07T16:18:29;5.50;;;2.60;;
75356;SDS011;63946;51.986;5.930;2023-05-07T16:20:58;3.03;;;2.30;;
75356;SDS011;63946;51.986;5.930;2023-05-07T16:23:27;4.85;;;2.72;;
75356;SDS011;63946;51.986;5.930;2023-05-07T16:25:59;5.97;;;3.05;;
75356;SDS011;63946;51.986;5.930;2023-05-07T16:28:29;4.63;;;3.00;;
75356;SDS011;63946;51.986;5.930;2023-05-07T16:30:58;6.35;;;3.60;;
75356;SDS011;63946;51.986;5.930;2023-05-07T16:33:27;7.13;;;4.03;;
75356;SDS011;63946;51.986;5.930;2023-05-07T16:35:55;5.68;;;3.72;;
75356;SDS011;63946;51.986;5.930;2023-05-07T16:38:27;5.68;;;4.43;;
75356;SDS011;63946;51.986;5.930;2023-05-07T16:40:58;6.63;;;4.13;;
75356;SDS011;63946;51.986;5.930;2023-05-07T16:43:27;6.05;;;3.95;;
75356;SDS011;63946;51.986;5.930;2023-05-07T16:45:55;5.03;;;3.55;;
75356;SDS011;63946;51.986;5.930;2023-05-07T16:48:31;6.15;;;4.07;;
75356;SDS011;63946;51.986;5.930;2023-05-07T16:51:03;4.13;;;3.15;;
75356;SDS011;63946;51.986;5.930;2023-05-07T16:53:32;3.97;;;3.13;;
75356;SDS011;63946;51.986;5.930;2023-05-07T16:56:04;4.05;;;2.80;;
75356;SDS011;63946;51.986;5.930;2023-05-07T16:58:33;3.17;;;2.88;;
75356;SDS011;63946;51.986;5.930;2023-05-07T17:01:05;3.85;;;3.35;;
75356;SDS011;63946;51.986;5.930;2023-05-07T17:03:36;3.08;;;2.78;;
75356;SDS011;63946;51.986;5.930;2023-05-07T17:06:06;5.10;;;2.90;;
75356;SDS011;63946;51.986;5.930;2023-05-07T17:08:38;3.92;;;3.15;;
75356;SDS011;63946;51.986;5.930;2023-05-07T17:11:07;4.07;;;2.83;;
75356;SDS011;63946;51.986;5.930;2023-05-07T17:13:36;5.32;;;3.15;;
75356;SDS011;63946;51.986;5.930;2023-05-07T17:16:15;6.90;;;3.05;;
75356;SDS011;63946;51.986;5.930;2023-05-07T17:18:44;11.50;;;3.22;;
75356;SDS011;63946;51.986;5.930;2023-05-07T17:21:13;4.45;;;3.25;;
75356;SDS011;63946;51.986;5.930;2023-05-07T17:23:44;3.95;;;2.97;;
75356;SDS011;63946;51.986;5.930;2023-05-07T17:26:15;3.47;;;3.13;;
75356;SDS011;63946;51.986;5.930;2023-05-07T17:28:45;4.13;;;3.20;;
75356;SDS011;63946;51.986;5.930;2023-05-07T17:31:14;4.28;;;3.88;;
75356;SDS011;63946;51.986;5.930;2023-05-07T17:33:50;4.38;;;3.60;;
75356;SDS011;63946;51.986;5.930;2023-05-07T17:36:23;4.63;;;3.60;;
75356;SDS011;63946;51.986;5.930;2023-05-07T17:38:52;3.65;;;2.70;;
75356;SDS011;63946;51.986;5.930;2023-05-07T17:41:21;3.92;;;3.33;;
75356;SDS011;63946;51.986;5.930;2023-05-07T17:43:50;6.88;;;3.30;;
75356;SDS011;63946;51.986;5.930;2023-05-07T17:46:20;4.68;;;3.03;;
75356;SDS011;63946;51.986;5.930;2023-05-07T17:48:49;3.92;;;2.90;;
75356;SDS011;63946;51.986;5.930;2023-05-07T17:51:17;4.35;;;3.05;;
75356;SDS011;63946;51.986;5.930;2023-05-07T17:53:46;3.70;;;2.80;;
75356;SDS011;63946;51.986;5.930;2023-05-07T17:56:15;3.85;;;3.35;;
75356;SDS011;63946;51.986;5.930;2023-05-07T17:58:47;6.00;;;3.50;;
75356;SDS011;63946;51.986;5.930;2023-05-07T18:01:16;4.10;;;3.58;;
75356;SDS011;63946;51.986;5.930;2023-05-07T18:03:47;3.75;;;3.35;;
75356;SDS011;63946;51.986;5.930;2023-05-07T18:06:16;5.00;;;3.33;;
75356;SDS011;63946;51.986;5.930;2023-05-07T18:08:47;5.32;;;3.10;;
75356;SDS011;63946;51.986;5.930;2023-05-07T18:11:16;5.03;;;3.10;;
75356;SDS011;63946;51.986;5.930;2023-05-07T18:13:46;4.60;;;3.30;;
75356;SDS011;63946;51.986;5.930;2023-05-07T18:16:15;4.00;;;2.55;;
75356;SDS011;63946;51.986;5.930;2023-05-07T18:18:44;3.13;;;2.78;;
75356;SDS011;63946;51.986;5.930;2023-05-07T18:21:16;3.97;;;3.10;;
75356;SDS011;63946;51.986;5.930;2023-05-07T18:23:45;3.92;;;2.67;;
75356;SDS011;63946;51.986;5.930;2023-05-07T18:26:16;4.85;;;2.95;;
75356;SDS011;63946;51.986;5.930;2023-05-07T18:28:45;4.55;;;3.47;;
75356;SDS011;63946;51.986;5.930;2023-05-07T18:31:14;6.05;;;3.83;;
75356;SDS011;63946;51.986;5.930;2023-05-07T18:33:43;4.22;;;3.67;;
75356;SDS011;63946;51.986;5.930;2023-05-07T18:36:12;3.83;;;3.20;;
75356;SDS011;63946;51.986;5.930;2023-05-07T18:38:40;5.30;;;4.15;;
75356;SDS011;63946;51.986;5.930;2023-05-07T18:41:09;3.95;;;2.95;;
75356;SDS011;63946;51.986;5.930;2023-05-07T18:43:41;6.05;;;4.57;;
75356;SDS011;63946;51.986;5.930;2023-05-07T18:46:10;7.03;;;4.63;;
75356;SDS011;63946;51.986;5.930;2023-05-07T18:48:39;5.38;;;3.70;;
75356;SDS011;63946;51.986;5.930;2023-05-07T18:51:09;5.95;;;3.78;;
75356;SDS011;63946;51.986;5.930;2023-05-07T18:53:42;6.85;;;4.53;;
75356;SDS011;63946;51.986;5.930;2023-05-07T18:56:11;4.28;;;3.88;;
75356;SDS011;63946;51.986;5.930;2023-05-07T18:58:40;5.07;;;3.85;;
75356;SDS011;63946;51.986;5.930;2023-05-07T19:01:08;5.53;;;4.00;;
75356;SDS011;63946;51.986;5.930;2023-05-07T19:03:40;3.88;;;3.28;;
75356;SDS011;63946;51.986;5.930;2023-05-07T19:06:12;4.70;;;3.83;;
75356;SDS011;63946;51.986;5.930;2023-05-07T19:08:43;4.35;;;3.65;;
75356;SDS011;63946;51.986;5.930;2023-05-07T19:11:12;3.90;;;3.50;;
75356;SDS011;63946;51.986;5.930;2023-05-07T19:13:47;5.07;;;3.30;;
75356;SDS011;63946;51.986;5.930;2023-05-07T19:16:16;5.38;;;3.28;;
75356;SDS011;63946;51.986;5.930;2023-05-07T19:18:45;3.10;;;2.75;;
75356;SDS011;63946;51.986;5.930;2023-05-07T19:21:16;4.20;;;3.33;;
75356;SDS011;63946;51.986;5.930;2023-05-07T19:23:45;4.32;;;3.40;;
75356;SDS011;63946;51.986;5.930;2023-05-07T19:26:15;6.88;;;3.78;;
75356;SDS011;63946;51.986;5.930;2023-05-07T19:28:44;4.78;;;3.30;;
75356;SDS011;63946;51.986;5.930;2023-05-07T19:31:20;4.68;;;3.70;;
75356;SDS011;63946;51.986;5.930;2023-05-07T19:33:51;5.05;;;3.70;;
75356;SDS011;63946;51.986;5.930;2023-05-07T19:36:20;4.40;;;3.55;;
75356;SDS011;63946;51.986;5.930;2023-05-07T19:38:49;4.53;;;3.78;;
75356;SDS011;63946;51.986;5.930;2023-05-07T19:41:19;5.20;;;3.88;;
75356;SDS011;63946;51.986;5.930;2023-05-07T19:43:49;5.47;;;4.25;;
75356;SDS011;63946;51.986;5.930;2023-05-07T19:46:17;3.95;;;3.55;;
75356;SDS011;63946;51.986;5.930;2023-05-07T19:48:46;5.13;;;4.13;;
75356;SDS011;63946;51.986;5.930;2023-05-07T19:51:15;6.00;;;4.00;;
75356;SDS011;63946;51.986;5.930;2023-05-07T19:53:47;5.00;;;3.78;;
75356;SDS011;63946;51.986;5.930;2023-05-07T19:56:15;5.57;;;4.25;;
75356;SDS011;63946;51.986;5.930;2023-05-07T19:58:44;6.70;;;5.85;;
75356;SDS011;63946;51.986;5.930;2023-05-07T20:01:13;5.93;;;4.82;;
75356;SDS011;63946;51.986;5.930;2023-05-07T20:03:42;4.85;;;4.35;;
75356;SDS011;63946;51.986;5.930;2023-05-07T20:06:11;5.38;;;4.88;;
75356;SDS011;63946;51.986;5.930;2023-05-07T20:08:40;4.78;;;4.18;;
75356;SDS011;63946;51.986;5.930;2023-05-07T20:11:09;5.47;;;4.38;;
75356;SDS011;63946;51.986;5.930;2023-05-07T20:13:38;4.85;;;4.30;;
75356;SDS011;63946;51.986;5.930;2023-05-07T20:16:07;4.25;;;3.70;;
75356;SDS011;63946;51.986;5.930;2023-05-07T20:18:36;7.05;;;4.07;;
75356;SDS011;63946;51.986;5.930;2023-05-07T20:21:05;5.88;;;4.82;;
75356;SDS011;63946;51.986;5.930;2023-05-07T20:23:33;5.90;;;4.75;;
75356;SDS011;63946;51.986;5.930;2023-05-07T20:26:02;5.88;;;5.13;;
75356;SDS011;63946;51.986;5.930;2023-05-07T20:28:31;5.88;;;5.28;;
75356;SDS011;63946;51.986;5.930;2023-05-07T20:31:00;5.78;;;4.72;;
